Charles M. Schulz Sonoma County Airport
KSTS : now visible

Airfield :











YOU CAN JOIN US ON...

 
LOGIN :

Register | Disclaimer

   EN    FR    IT 

 









Legend :    VFR   Marginal VFR   IFR   Intensive IFR   Very Intensive IFR
Visi :
Ceiling :
>= 8 km
>= 3000ft
5 to 8 km
1000 to 3000 ft
1500m to 5 km
500 to 1000 ft
800 to 1500m
200 to 500 ft
< 800m
< 200 ft
Symbols :   Thunderstorms  Fog  Heavy snow  Heavy precipitations  Wind > 20 kt






- Airport Elevation : 128 ft


KSTS - Charles M. Schulz Sonoma County

CURRENT METAR :
  • 230253Z 19005KT 10SM CLR 13/11 A3000 RMK AO2 SLP151 T01280106 51003

EXPIRED METARs :
  • 230153Z COR 19003KT 10SM FEW030 BKN180 13/11 A3000 RMK AO2 SLP151 T01330106
  • 230053Z 23006KT 10SM SCT025 BKN200 15/10 A2999 RMK AO2 SLP148 T01500100

TAF KSTS
Valid from the 23 at 00:00 until the 24 at 00:00 UTC


222334Z 2300/2324 23007KT P6SM VCSH FEW020 SCT030
FM230300 VRB03KT P6SM VCSH FEW006 BKN030
FM230800 00000KT 6SM BR OVC006
FM231200 VRB03KT 2SM BR OVC003
FM231700 VRB05KT 6SM BR SCT005 BKN040 OVC060
FM232100 18007KT 5SM BR VCSH FEW011 BKN025 OVC040
KZOA FIR / North America



MET'MAP, your aeronautical weather chart ! - Copyright ORBIFLY December 2007 - Disclaimer

ORBIFLY MET'MAP TEAM :

Programming & Development : Alexandra Zaïnal
Concept & original design : Baudouin d'Aumeries
Assistance for programming : Marc-Olivier Méhu
Technical & hardware support : Manuel Goepfert

Contact : metmap@orbifly.com




SOURCES & CREDITS :

   NOAA       Earth
Advisory